sensor_id;sensor_type;location;lat;lon;timestamp;P1;durP1;ratioP1;P2;durP2;ratioP2
3068;SDS011;1545;51.728;8.796;2022-09-09T00:03:34;6.53;;;2.53;;
3068;SDS011;1545;51.728;8.796;2022-09-09T00:06:21;5.67;;;2.40;;
3068;SDS011;1545;51.728;8.796;2022-09-09T00:09:02;8.77;;;2.50;;
3068;SDS011;1545;51.728;8.796;2022-09-09T00:17:14;8.30;;;2.90;;
3068;SDS011;1545;51.728;8.796;2022-09-09T00:22:25;13.23;;;2.90;;
3068;SDS011;1545;51.728;8.796;2022-09-09T00:24:53;6.00;;;2.53;;
3068;SDS011;1545;51.728;8.796;2022-09-09T00:27:25;5.43;;;2.63;;
3068;SDS011;1545;51.728;8.796;2022-09-09T00:30:12;8.47;;;3.00;;
3068;SDS011;1545;51.728;8.796;2022-09-09T00:32:55;7.17;;;3.20;;
3068;SDS011;1545;51.728;8.796;2022-09-09T00:35:26;5.90;;;2.60;;
3068;SDS011;1545;51.728;8.796;2022-09-09T00:38:00;5.90;;;2.87;;
3068;SDS011;1545;51.728;8.796;2022-09-09T00:41:01;8.03;;;2.63;;
3068;SDS011;1545;51.728;8.796;2022-09-09T00:43:31;6.13;;;2.50;;
3068;SDS011;1545;51.728;8.796;2022-09-09T00:46:10;8.90;;;2.83;;
3068;SDS011;1545;51.728;8.796;2022-09-09T00:51:50;13.70;;;3.50;;
3068;SDS011;1545;51.728;8.796;2022-09-09T00:54:34;10.83;;;3.20;;
3068;SDS011;1545;51.728;8.796;2022-09-09T01:05:18;11.37;;;3.80;;
3068;SDS011;1545;51.728;8.796;2022-09-09T01:07:49;7.40;;;2.97;;
3068;SDS011;1545;51.728;8.796;2022-09-09T01:13:27;9.00;;;3.27;;
3068;SDS011;1545;51.728;8.796;2022-09-09T01:15:55;11.93;;;3.13;;
3068;SDS011;1545;51.728;8.796;2022-09-09T01:18:26;9.77;;;3.03;;
3068;SDS011;1545;51.728;8.796;2022-09-09T01:24:13;10.73;;;2.83;;
3068;SDS011;1545;51.728;8.796;2022-09-09T01:27:13;8.67;;;3.30;;
3068;SDS011;1545;51.728;8.796;2022-09-09T01:29:39;12.60;;;3.10;;
3068;SDS011;1545;51.728;8.796;2022-09-09T01:35:04;10.90;;;3.93;;
3068;SDS011;1545;51.728;8.796;2022-09-09T01:37:36;9.07;;;3.27;;
3068;SDS011;1545;51.728;8.796;2022-09-09T01:40:02;18.00;;;3.67;;
3068;SDS011;1545;51.728;8.796;2022-09-09T01:42:28;10.93;;;3.40;;
3068;SDS011;1545;51.728;8.796;2022-09-09T01:44:54;9.63;;;3.50;;
3068;SDS011;1545;51.728;8.796;2022-09-09T01:47:20;14.17;;;3.43;;
3068;SDS011;1545;51.728;8.796;2022-09-09T01:49:45;5.53;;;2.90;;
3068;SDS011;1545;51.728;8.796;2022-09-09T01:52:11;11.83;;;3.60;;
3068;SDS011;1545;51.728;8.796;2022-09-09T01:54:36;7.63;;;3.10;;
3068;SDS011;1545;51.728;8.796;2022-09-09T01:57:12;8.90;;;3.57;;
3068;SDS011;1545;51.728;8.796;2022-09-09T02:00:01;13.33;;;3.60;;
3068;SDS011;1545;51.728;8.796;2022-09-09T02:08:05;6.73;;;3.40;;
3068;SDS011;1545;51.728;8.796;2022-09-09T02:10:37;7.83;;;3.30;;
3068;SDS011;1545;51.728;8.796;2022-09-09T02:13:08;8.33;;;3.47;;
3068;SDS011;1545;51.728;8.796;2022-09-09T02:18:50;13.13;;;3.47;;
3068;SDS011;1545;51.728;8.796;2022-09-09T02:21:29;6.93;;;3.20;;
3068;SDS011;1545;51.728;8.796;2022-09-09T02:23:56;6.90;;;3.20;;
3068;SDS011;1545;51.728;8.796;2022-09-09T02:26:24;9.00;;;4.00;;
3068;SDS011;1545;51.728;8.796;2022-09-09T02:28:52;6.90;;;3.77;;
3068;SDS011;1545;51.728;8.796;2022-09-09T02:31:22;9.07;;;3.40;;
3068;SDS011;1545;51.728;8.796;2022-09-09T02:33:59;10.13;;;3.53;;
3068;SDS011;1545;51.728;8.796;2022-09-09T02:36:27;10.40;;;3.50;;
3068;SDS011;1545;51.728;8.796;2022-09-09T02:38:56;9.90;;;3.37;;
3068;SDS011;1545;51.728;8.796;2022-09-09T02:41:30;7.17;;;3.00;;
3068;SDS011;1545;51.728;8.796;2022-09-09T02:43:58;13.87;;;3.87;;
3068;SDS011;1545;51.728;8.796;2022-09-09T02:46:40;10.10;;;3.50;;
3068;SDS011;1545;51.728;8.796;2022-09-09T02:49:39;7.60;;;3.10;;
3068;SDS011;1545;51.728;8.796;2022-09-09T02:52:26;7.43;;;3.27;;
3068;SDS011;1545;51.728;8.796;2022-09-09T02:56:02;8.70;;;3.57;;
3068;SDS011;1545;51.728;8.796;2022-09-09T02:58:05;8.50;;;2.90;;
3068;SDS011;1545;51.728;8.796;2022-09-09T03:00:34;10.30;;;3.23;;
3068;SDS011;1545;51.728;8.796;2022-09-09T03:03:04;5.83;;;2.87;;
3068;SDS011;1545;51.728;8.796;2022-09-09T03:05:30;10.90;;;3.07;;
3068;SDS011;1545;51.728;8.796;2022-09-09T03:07:56;7.57;;;2.93;;
3068;SDS011;1545;51.728;8.796;2022-09-09T03:10:22;9.23;;;2.83;;
3068;SDS011;1545;51.728;8.796;2022-09-09T03:12:48;5.33;;;2.90;;
3068;SDS011;1545;51.728;8.796;2022-09-09T03:15:13;10.93;;;2.80;;
3068;SDS011;1545;51.728;8.796;2022-09-09T03:17:40;6.40;;;2.90;;
3068;SDS011;1545;51.728;8.796;2022-09-09T03:20:06;8.43;;;2.73;;
3068;SDS011;1545;51.728;8.796;2022-09-09T03:22:33;9.20;;;3.10;;
3068;SDS011;1545;51.728;8.796;2022-09-09T03:24:59;8.20;;;2.70;;
3068;SDS011;1545;51.728;8.796;2022-09-09T03:27:25;6.27;;;3.13;;
3068;SDS011;1545;51.728;8.796;2022-09-09T03:29:50;9.10;;;3.07;;
3068;SDS011;1545;51.728;8.796;2022-09-09T03:32:17;7.47;;;2.70;;
3068;SDS011;1545;51.728;8.796;2022-09-09T03:34:43;6.70;;;2.87;;
3068;SDS011;1545;51.728;8.796;2022-09-09T03:37:09;8.10;;;3.00;;
3068;SDS011;1545;51.728;8.796;2022-09-09T03:39:35;6.63;;;2.67;;
3068;SDS011;1545;51.728;8.796;2022-09-09T03:42:00;6.03;;;2.87;;
3068;SDS011;1545;51.728;8.796;2022-09-09T03:44:29;6.73;;;2.90;;
3068;SDS011;1545;51.728;8.796;2022-09-09T03:46:55;7.30;;;3.10;;
3068;SDS011;1545;51.728;8.796;2022-09-09T03:49:21;7.30;;;2.93;;
3068;SDS011;1545;51.728;8.796;2022-09-09T03:51:47;7.03;;;2.73;;
3068;SDS011;1545;51.728;8.796;2022-09-09T03:54:13;8.30;;;3.40;;
3068;SDS011;1545;51.728;8.796;2022-09-09T03:56:38;6.87;;;3.00;;
3068;SDS011;1545;51.728;8.796;2022-09-09T03:59:06;7.30;;;3.07;;
3068;SDS011;1545;51.728;8.796;2022-09-09T04:01:33;6.00;;;3.10;;
3068;SDS011;1545;51.728;8.796;2022-09-09T04:03:59;10.37;;;3.37;;
3068;SDS011;1545;51.728;8.796;2022-09-09T04:06:27;10.73;;;3.37;;
3068;SDS011;1545;51.728;8.796;2022-09-09T04:08:53;7.90;;;3.10;;
3068;SDS011;1545;51.728;8.796;2022-09-09T04:11:20;11.20;;;3.30;;
3068;SDS011;1545;51.728;8.796;2022-09-09T04:13:46;14.10;;;3.43;;
3068;SDS011;1545;51.728;8.796;2022-09-09T04:16:12;12.63;;;3.87;;
3068;SDS011;1545;51.728;8.796;2022-09-09T04:18:38;11.00;;;3.40;;
3068;SDS011;1545;51.728;8.796;2022-09-09T04:21:04;9.63;;;3.83;;
3068;SDS011;1545;51.728;8.796;2022-09-09T04:23:31;11.13;;;3.20;;
3068;SDS011;1545;51.728;8.796;2022-09-09T04:25:57;10.73;;;3.53;;
3068;SDS011;1545;51.728;8.796;2022-09-09T04:28:25;10.43;;;3.50;;
3068;SDS011;1545;51.728;8.796;2022-09-09T04:30:52;5.80;;;2.90;;
3068;SDS011;1545;51.728;8.796;2022-09-09T04:33:18;7.23;;;3.00;;
3068;SDS011;1545;51.728;8.796;2022-09-09T04:35:48;13.30;;;3.17;;
3068;SDS011;1545;51.728;8.796;2022-09-09T04:38:15;5.17;;;3.17;;
3068;SDS011;1545;51.728;8.796;2022-09-09T04:40:48;10.23;;;3.30;;
3068;SDS011;1545;51.728;8.796;2022-09-09T04:43:14;6.13;;;2.80;;
3068;SDS011;1545;51.728;8.796;2022-09-09T04:45:41;8.50;;;2.93;;
3068;SDS011;1545;51.728;8.796;2022-09-09T04:48:07;10.93;;;3.30;;
3068;SDS011;1545;51.728;8.796;2022-09-09T04:50:34;10.53;;;3.27;;
3068;SDS011;1545;51.728;8.796;2022-09-09T04:53:04;10.50;;;2.93;;
3068;SDS011;1545;51.728;8.796;2022-09-09T04:55:30;9.17;;;2.77;;
3068;SDS011;1545;51.728;8.796;2022-09-09T04:57:56;9.10;;;3.53;;
3068;SDS011;1545;51.728;8.796;2022-09-09T05:00:22;8.63;;;3.53;;
3068;SDS011;1545;51.728;8.796;2022-09-09T05:02:49;6.00;;;3.33;;
3068;SDS011;1545;51.728;8.796;2022-09-09T05:05:14;10.97;;;3.80;;
3068;SDS011;1545;51.728;8.796;2022-09-09T05:07:40;11.97;;;4.10;;
3068;SDS011;1545;51.728;8.796;2022-09-09T05:10:06;14.67;;;4.30;;
3068;SDS011;1545;51.728;8.796;2022-09-09T05:12:32;10.23;;;3.73;;
3068;SDS011;1545;51.728;8.796;2022-09-09T05:14:58;7.17;;;3.30;;
3068;SDS011;1545;51.728;8.796;2022-09-09T05:17:23;12.10;;;3.80;;
3068;SDS011;1545;51.728;8.796;2022-09-09T05:19:49;8.97;;;4.07;;
3068;SDS011;1545;51.728;8.796;2022-09-09T05:22:18;10.87;;;3.83;;
3068;SDS011;1545;51.728;8.796;2022-09-09T05:24:45;8.23;;;3.90;;
3068;SDS011;1545;51.728;8.796;2022-09-09T05:27:10;8.87;;;3.57;;
3068;SDS011;1545;51.728;8.796;2022-09-09T05:29:37;9.73;;;3.50;;
3068;SDS011;1545;51.728;8.796;2022-09-09T05:32:03;9.03;;;3.47;;
3068;SDS011;1545;51.728;8.796;2022-09-09T05:34:29;14.10;;;3.27;;
3068;SDS011;1545;51.728;8.796;2022-09-09T05:36:54;8.30;;;2.97;;
3068;SDS011;1545;51.728;8.796;2022-09-09T05:39:20;9.80;;;3.30;;
3068;SDS011;1545;51.728;8.796;2022-09-09T05:41:45;9.23;;;3.47;;
3068;SDS011;1545;51.728;8.796;2022-09-09T05:44:11;6.10;;;2.93;;
3068;SDS011;1545;51.728;8.796;2022-09-09T05:46:36;9.57;;;3.10;;
3068;SDS011;1545;51.728;8.796;2022-09-09T05:49:02;6.40;;;2.90;;
3068;SDS011;1545;51.728;8.796;2022-09-09T05:51:30;9.83;;;3.17;;
3068;SDS011;1545;51.728;8.796;2022-09-09T05:53:56;13.13;;;2.93;;
3068;SDS011;1545;51.728;8.796;2022-09-09T05:56:25;6.33;;;2.93;;
3068;SDS011;1545;51.728;8.796;2022-09-09T05:58:52;5.77;;;2.83;;
3068;SDS011;1545;51.728;8.796;2022-09-09T06:01:20;7.30;;;2.83;;
3068;SDS011;1545;51.728;8.796;2022-09-09T06:03:47;8.47;;;2.57;;
3068;SDS011;1545;51.728;8.796;2022-09-09T06:06:15;7.63;;;2.60;;
3068;SDS011;1545;51.728;8.796;2022-09-09T06:08:47;6.57;;;2.33;;
3068;SDS011;1545;51.728;8.796;2022-09-09T06:11:17;7.33;;;2.50;;
3068;SDS011;1545;51.728;8.796;2022-09-09T06:13:46;8.07;;;2.50;;
3068;SDS011;1545;51.728;8.796;2022-09-09T06:16:13;4.00;;;2.33;;
3068;SDS011;1545;51.728;8.796;2022-09-09T06:18:41;5.97;;;2.30;;
3068;SDS011;1545;51.728;8.796;2022-09-09T06:21:09;7.67;;;2.17;;
3068;SDS011;1545;51.728;8.796;2022-09-09T06:23:41;9.00;;;2.37;;
3068;SDS011;1545;51.728;8.796;2022-09-09T06:26:10;7.83;;;2.63;;
3068;SDS011;1545;51.728;8.796;2022-09-09T06:28:38;8.40;;;2.40;;
3068;SDS011;1545;51.728;8.796;2022-09-09T06:31:04;9.17;;;3.43;;
3068;SDS011;1545;51.728;8.796;2022-09-09T06:33:36;10.17;;;2.93;;
3068;SDS011;1545;51.728;8.796;2022-09-09T06:36:05;9.33;;;2.80;;
3068;SDS011;1545;51.728;8.796;2022-09-09T06:38:41;7.97;;;2.90;;
3068;SDS011;1545;51.728;8.796;2022-09-09T06:41:08;7.80;;;3.30;;
3068;SDS011;1545;51.728;8.796;2022-09-09T06:43:34;5.73;;;2.53;;
3068;SDS011;1545;51.728;8.796;2022-09-09T06:46:04;9.87;;;2.70;;
3068;SDS011;1545;51.728;8.796;2022-09-09T06:48:33;4.43;;;2.33;;
3068;SDS011;1545;51.728;8.796;2022-09-09T06:51:13;10.73;;;3.03;;
3068;SDS011;1545;51.728;8.796;2022-09-09T06:53:41;6.77;;;2.83;;
3068;SDS011;1545;51.728;8.796;2022-09-09T06:58:48;9.77;;;4.63;;
3068;SDS011;1545;51.728;8.796;2022-09-09T07:01:19;12.60;;;3.80;;
3068;SDS011;1545;51.728;8.796;2022-09-09T07:03:49;8.87;;;2.83;;
3068;SDS011;1545;51.728;8.796;2022-09-09T07:06:29;9.70;;;2.90;;
3068;SDS011;1545;51.728;8.796;2022-09-09T07:08:57;6.87;;;2.67;;
3068;SDS011;1545;51.728;8.796;2022-09-09T07:11:25;8.00;;;3.07;;
3068;SDS011;1545;51.728;8.796;2022-09-09T07:13:52;6.63;;;2.70;;
3068;SDS011;1545;51.728;8.796;2022-09-09T07:16:19;4.37;;;2.30;;
3068;SDS011;1545;51.728;8.796;2022-09-09T07:18:46;10.53;;;3.27;;
3068;SDS011;1545;51.728;8.796;2022-09-09T07:21:12;5.30;;;2.83;;
3068;SDS011;1545;51.728;8.796;2022-09-09T07:23:39;6.77;;;2.80;;
3068;SDS011;1545;51.728;8.796;2022-09-09T07:26:12;6.93;;;2.90;;
3068;SDS011;1545;51.728;8.796;2022-09-09T07:28:39;8.00;;;2.87;;
3068;SDS011;1545;51.728;8.796;2022-09-09T07:31:06;10.70;;;2.93;;
3068;SDS011;1545;51.728;8.796;2022-09-09T07:33:38;11.33;;;2.73;;
3068;SDS011;1545;51.728;8.796;2022-09-09T07:36:27;10.10;;;2.83;;
3068;SDS011;1545;51.728;8.796;2022-09-09T07:38:57;6.63;;;2.97;;
3068;SDS011;1545;51.728;8.796;2022-09-09T07:41:25;9.77;;;3.00;;
3068;SDS011;1545;51.728;8.796;2022-09-09T07:43:52;8.80;;;2.93;;
3068;SDS011;1545;51.728;8.796;2022-09-09T07:46:19;8.07;;;2.90;;
3068;SDS011;1545;51.728;8.796;2022-09-09T07:48:47;11.27;;;3.00;;
3068;SDS011;1545;51.728;8.796;2022-09-09T07:51:18;7.10;;;2.57;;
3068;SDS011;1545;51.728;8.796;2022-09-09T07:53:47;11.50;;;2.80;;
3068;SDS011;1545;51.728;8.796;2022-09-09T07:56:16;11.00;;;3.03;;
3068;SDS011;1545;51.728;8.796;2022-09-09T07:58:46;9.90;;;2.70;;
3068;SDS011;1545;51.728;8.796;2022-09-09T08:01:13;8.63;;;3.13;;
3068;SDS011;1545;51.728;8.796;2022-09-09T08:03:42;9.33;;;3.37;;
3068;SDS011;1545;51.728;8.796;2022-09-09T08:06:09;12.77;;;3.20;;
3068;SDS011;1545;51.728;8.796;2022-09-09T08:08:36;9.80;;;3.07;;
3068;SDS011;1545;51.728;8.796;2022-09-09T08:11:07;8.27;;;2.87;;
3068;SDS011;1545;51.728;8.796;2022-09-09T08:13:38;10.07;;;2.70;;
3068;SDS011;1545;51.728;8.796;2022-09-09T08:16:14;6.50;;;2.43;;
3068;SDS011;1545;51.728;8.796;2022-09-09T08:18:41;9.03;;;2.50;;
3068;SDS011;1545;51.728;8.796;2022-09-09T08:21:09;10.47;;;2.00;;
3068;SDS011;1545;51.728;8.796;2022-09-09T08:23:39;4.67;;;2.00;;
3068;SDS011;1545;51.728;8.796;2022-09-09T08:26:11;5.73;;;1.67;;
3068;SDS011;1545;51.728;8.796;2022-09-09T08:28:41;5.30;;;1.70;;
3068;SDS011;1545;51.728;8.796;2022-09-09T08:31:15;2.37;;;1.43;;
3068;SDS011;1545;51.728;8.796;2022-09-09T08:33:43;3.37;;;1.63;;
3068;SDS011;1545;51.728;8.796;2022-09-09T08:36:11;4.53;;;1.60;;
3068;SDS011;1545;51.728;8.796;2022-09-09T08:38:40;3.15;;;1.60;;
3068;SDS011;1545;51.728;8.796;2022-09-09T08:41:28;7.78;;;1.90;;
3068;SDS011;1545;51.728;8.796;2022-09-09T08:47:08;4.53;;;1.75;;
3068;SDS011;1545;51.728;8.796;2022-09-09T08:57:42;5.75;;;2.20;;
3068;SDS011;1545;51.728;8.796;2022-09-09T09:00:10;4.30;;;2.15;;
3068;SDS011;1545;51.728;8.796;2022-09-09T09:02:46;3.78;;;2.10;;
3068;SDS011;1545;51.728;8.796;2022-09-09T09:05:23;12.32;;;2.50;;
3068;SDS011;1545;51.728;8.796;2022-09-09T09:08:06;13.20;;;2.50;;
3068;SDS011;1545;51.728;8.796;2022-09-09T09:10:45;6.63;;;2.08;;
3068;SDS011;1545;51.728;8.796;2022-09-09T09:13:17;5.10;;;2.10;;
3068;SDS011;1545;51.728;8.796;2022-09-09T09:15:46;6.55;;;2.10;;
3068;SDS011;1545;51.728;8.796;2022-09-09T09:18:21;4.70;;;1.85;;
3068;SDS011;1545;51.728;8.796;2022-09-09T09:20:49;4.77;;;2.30;;
3068;SDS011;1545;51.728;8.796;2022-09-09T09:23:21;7.07;;;1.80;;
3068;SDS011;1545;51.728;8.796;2022-09-09T09:25:49;5.47;;;2.20;;
3068;SDS011;1545;51.728;8.796;2022-09-09T09:28:18;9.03;;;2.20;;
3068;SDS011;1545;51.728;8.796;2022-09-09T09:30:52;5.57;;;2.33;;
3068;SDS011;1545;51.728;8.796;2022-09-09T09:36:06;7.27;;;2.80;;
3068;SDS011;1545;51.728;8.796;2022-09-09T09:38:33;5.47;;;2.27;;
3068;SDS011;1545;51.728;8.796;2022-09-09T09:40:59;6.60;;;2.20;;
3068;SDS011;1545;51.728;8.796;2022-09-09T09:43:26;5.27;;;2.10;;
3068;SDS011;1545;51.728;8.796;2022-09-09T09:45:59;9.37;;;2.33;;
3068;SDS011;1545;51.728;8.796;2022-09-09T09:48:28;10.37;;;2.80;;
3068;SDS011;1545;51.728;8.796;2022-09-09T09:50:54;7.13;;;2.70;;
3068;SDS011;1545;51.728;8.796;2022-09-09T09:53:40;8.03;;;2.53;;
3068;SDS011;1545;51.728;8.796;2022-09-09T09:56:07;6.33;;;2.60;;
3068;SDS011;1545;51.728;8.796;2022-09-09T10:03:53;4.50;;;2.10;;
3068;SDS011;1545;51.728;8.796;2022-09-09T10:06:34;4.60;;;2.10;;
3068;SDS011;1545;51.728;8.796;2022-09-09T10:09:03;7.50;;;2.30;;
3068;SDS011;1545;51.728;8.796;2022-09-09T10:11:52;7.13;;;2.23;;
3068;SDS011;1545;51.728;8.796;2022-09-09T10:14:30;7.67;;;2.17;;
3068;SDS011;1545;51.728;8.796;2022-09-09T10:20:17;5.60;;;1.87;;
3068;SDS011;1545;51.728;8.796;2022-09-09T10:23:09;8.13;;;2.30;;
3068;SDS011;1545;51.728;8.796;2022-09-09T10:29:00;5.57;;;1.80;;
3068;SDS011;1545;51.728;8.796;2022-09-09T10:31:45;6.83;;;2.30;;
3068;SDS011;1545;51.728;8.796;2022-09-09T10:56:48;6.43;;;2.00;;
3068;SDS011;1545;51.728;8.796;2022-09-09T10:59:20;7.97;;;2.40;;
3068;SDS011;1545;51.728;8.796;2022-09-09T11:01:57;6.13;;;2.20;;
3068;SDS011;1545;51.728;8.796;2022-09-09T11:04:25;4.93;;;2.13;;
3068;SDS011;1545;51.728;8.796;2022-09-09T11:06:57;3.67;;;1.80;;
3068;SDS011;1545;51.728;8.796;2022-09-09T11:09:30;5.23;;;2.57;;
3068;SDS011;1545;51.728;8.796;2022-09-09T11:12:01;3.07;;;1.97;;
3068;SDS011;1545;51.728;8.796;2022-09-09T11:14:32;7.67;;;2.03;;
3068;SDS011;1545;51.728;8.796;2022-09-09T11:17:06;8.20;;;1.90;;
3068;SDS011;1545;51.728;8.796;2022-09-09T11:19:41;9.37;;;2.20;;
3068;SDS011;1545;51.728;8.796;2022-09-09T11:22:21;6.83;;;1.90;;
3068;SDS011;1545;51.728;8.796;2022-09-09T11:24:51;4.30;;;2.00;;
3068;SDS011;1545;51.728;8.796;2022-09-09T11:27:26;6.50;;;2.20;;
3068;SDS011;1545;51.728;8.796;2022-09-09T11:30:22;5.60;;;2.00;;
3068;SDS011;1545;51.728;8.796;2022-09-09T11:32:54;4.87;;;1.97;;
3068;SDS011;1545;51.728;8.796;2022-09-09T11:41:00;7.07;;;2.17;;
3068;SDS011;1545;51.728;8.796;2022-09-09T11:43:37;9.37;;;2.30;;
3068;SDS011;1545;51.728;8.796;2022-09-09T11:46:06;5.73;;;2.23;;
3068;SDS011;1545;51.728;8.796;2022-09-09T11:51:05;9.03;;;5.67;;
3068;SDS011;1545;51.728;8.796;2022-09-09T11:53:35;7.97;;;2.23;;
3068;SDS011;1545;51.728;8.796;2022-09-09T11:56:24;8.03;;;2.50;;
3068;SDS011;1545;51.728;8.796;2022-09-09T11:59:02;7.00;;;2.30;;
3068;SDS011;1545;51.728;8.796;2022-09-09T12:06:43;7.27;;;2.17;;
3068;SDS011;1545;51.728;8.796;2022-09-09T12:09:17;6.00;;;2.20;;
3068;SDS011;1545;51.728;8.796;2022-09-09T12:12:04;9.23;;;2.33;;
3068;SDS011;1545;51.728;8.796;2022-09-09T12:14:36;5.50;;;2.40;;
3068;SDS011;1545;51.728;8.796;2022-09-09T12:17:09;6.17;;;2.37;;
3068;SDS011;1545;51.728;8.796;2022-09-09T12:19:43;8.17;;;2.57;;
3068;SDS011;1545;51.728;8.796;2022-09-09T12:22:27;8.40;;;2.37;;
3068;SDS011;1545;51.728;8.796;2022-09-09T12:25:01;5.73;;;2.10;;
3068;SDS011;1545;51.728;8.796;2022-09-09T12:27:43;8.53;;;2.73;;
3068;SDS011;1545;51.728;8.796;2022-09-09T12:30:16;6.87;;;2.40;;
3068;SDS011;1545;51.728;8.796;2022-09-09T12:32:42;8.17;;;2.40;;
3068;SDS011;1545;51.728;8.796;2022-09-09T12:37:38;5.97;;;2.30;;
3068;SDS011;1545;51.728;8.796;2022-09-09T12:42:50;5.63;;;2.13;;
3068;SDS011;1545;51.728;8.796;2022-09-09T12:47:45;6.67;;;2.07;;
3068;SDS011;1545;51.728;8.796;2022-09-09T12:50:31;5.60;;;2.00;;
3068;SDS011;1545;51.728;8.796;2022-09-09T12:53:08;7.43;;;2.20;;
3068;SDS011;1545;51.728;8.796;2022-09-09T12:55:57;12.73;;;2.20;;
3068;SDS011;1545;51.728;8.796;2022-09-09T12:58:25;4.20;;;2.00;;
3068;SDS011;1545;51.728;8.796;2022-09-09T13:00:53;11.03;;;2.80;;
3068;SDS011;1545;51.728;8.796;2022-09-09T13:03:23;16.67;;;5.83;;
3068;SDS011;1545;51.728;8.796;2022-09-09T13:05:52;10.17;;;2.63;;
3068;SDS011;1545;51.728;8.796;2022-09-09T13:08:23;4.83;;;2.20;;
3068;SDS011;1545;51.728;8.796;2022-09-09T13:10:53;10.30;;;2.50;;
3068;SDS011;1545;51.728;8.796;2022-09-09T13:13:28;5.37;;;1.67;;
3068;SDS011;1545;51.728;8.796;2022-09-09T13:15:57;4.90;;;1.90;;
3068;SDS011;1545;51.728;8.796;2022-09-09T13:18:25;2.83;;;1.83;;
3068;SDS011;1545;51.728;8.796;2022-09-09T13:20:55;4.53;;;1.80;;
3068;SDS011;1545;51.728;8.796;2022-09-09T13:23:26;5.10;;;1.40;;
3068;SDS011;1545;51.728;8.796;2022-09-09T13:25:55;2.83;;;1.37;;
3068;SDS011;1545;51.728;8.796;2022-09-09T13:28:23;6.10;;;1.90;;
3068;SDS011;1545;51.728;8.796;2022-09-09T13:33:33;6.23;;;1.87;;
3068;SDS011;1545;51.728;8.796;2022-09-09T13:36:06;5.70;;;1.90;;
3068;SDS011;1545;51.728;8.796;2022-09-09T13:39:13;3.83;;;1.60;;
3068;SDS011;1545;51.728;8.796;2022-09-09T13:41:41;6.07;;;1.90;;
3068;SDS011;1545;51.728;8.796;2022-09-09T13:44:23;6.17;;;1.90;;
3068;SDS011;1545;51.728;8.796;2022-09-09T13:46:59;5.13;;;2.03;;
3068;SDS011;1545;51.728;8.796;2022-09-09T13:49:41;7.07;;;2.17;;
3068;SDS011;1545;51.728;8.796;2022-09-09T13:52:11;2.60;;;1.90;;
3068;SDS011;1545;51.728;8.796;2022-09-09T13:54:38;3.57;;;1.80;;
3068;SDS011;1545;51.728;8.796;2022-09-09T13:57:04;4.30;;;1.97;;
3068;SDS011;1545;51.728;8.796;2022-09-09T13:59:30;2.30;;;1.53;;
3068;SDS011;1545;51.728;8.796;2022-09-09T14:01:56;2.93;;;1.60;;
3068;SDS011;1545;51.728;8.796;2022-09-09T14:04:22;3.43;;;1.50;;
3068;SDS011;1545;51.728;8.796;2022-09-09T14:06:48;3.67;;;1.50;;
3068;SDS011;1545;51.728;8.796;2022-09-09T14:09:15;4.07;;;1.60;;
3068;SDS011;1545;51.728;8.796;2022-09-09T14:11:42;4.07;;;1.70;;
3068;SDS011;1545;51.728;8.796;2022-09-09T14:14:09;3.37;;;1.50;;
3068;SDS011;1545;51.728;8.796;2022-09-09T14:16:34;3.80;;;1.80;;
3068;SDS011;1545;51.728;8.796;2022-09-09T14:19:00;6.07;;;2.27;;
3068;SDS011;1545;51.728;8.796;2022-09-09T14:21:26;7.23;;;1.83;;
3068;SDS011;1545;51.728;8.796;2022-09-09T14:23:52;4.00;;;1.60;;
3068;SDS011;1545;51.728;8.796;2022-09-09T14:26:21;5.93;;;2.00;;
3068;SDS011;1545;51.728;8.796;2022-09-09T14:28:47;7.27;;;1.67;;
3068;SDS011;1545;51.728;8.796;2022-09-09T14:31:13;8.00;;;1.93;;
3068;SDS011;1545;51.728;8.796;2022-09-09T14:33:39;7.30;;;1.90;;
3068;SDS011;1545;51.728;8.796;2022-09-09T14:36:05;5.90;;;1.80;;
3068;SDS011;1545;51.728;8.796;2022-09-09T14:38:32;5.33;;;1.93;;
3068;SDS011;1545;51.728;8.796;2022-09-09T14:40:59;4.13;;;1.73;;
3068;SDS011;1545;51.728;8.796;2022-09-09T14:43:28;4.57;;;2.07;;
3068;SDS011;1545;51.728;8.796;2022-09-09T14:45:54;5.60;;;2.10;;
3068;SDS011;1545;51.728;8.796;2022-09-09T14:48:20;5.63;;;2.47;;
3068;SDS011;1545;51.728;8.796;2022-09-09T14:50:46;4.93;;;2.10;;
3068;SDS011;1545;51.728;8.796;2022-09-09T14:53:11;3.37;;;1.93;;
3068;SDS011;1545;51.728;8.796;2022-09-09T14:55:37;9.27;;;1.93;;
3068;SDS011;1545;51.728;8.796;2022-09-09T14:58:04;4.30;;;1.80;;
3068;SDS011;1545;51.728;8.796;2022-09-09T15:00:31;4.23;;;1.90;;
3068;SDS011;1545;51.728;8.796;2022-09-09T15:02:56;4.93;;;1.90;;
3068;SDS011;1545;51.728;8.796;2022-09-09T15:05:22;5.90;;;2.13;;
3068;SDS011;1545;51.728;8.796;2022-09-09T15:07:49;7.50;;;2.10;;
3068;SDS011;1545;51.728;8.796;2022-09-09T15:10:15;7.57;;;2.17;;
3068;SDS011;1545;51.728;8.796;2022-09-09T15:12:42;3.87;;;1.97;;
3068;SDS011;1545;51.728;8.796;2022-09-09T15:15:08;7.07;;;2.10;;
3068;SDS011;1545;51.728;8.796;2022-09-09T15:17:33;8.20;;;2.13;;
3068;SDS011;1545;51.728;8.796;2022-09-09T15:20:00;4.90;;;1.80;;
3068;SDS011;1545;51.728;8.796;2022-09-09T15:22:25;6.13;;;1.80;;
3068;SDS011;1545;51.728;8.796;2022-09-09T15:24:51;7.37;;;2.37;;
3068;SDS011;1545;51.728;8.796;2022-09-09T15:27:17;4.43;;;2.00;;
3068;SDS011;1545;51.728;8.796;2022-09-09T15:29:43;3.00;;;1.30;;
3068;SDS011;1545;51.728;8.796;2022-09-09T15:32:09;8.27;;;1.80;;
3068;SDS011;1545;51.728;8.796;2022-09-09T15:34:34;3.57;;;1.80;;
3068;SDS011;1545;51.728;8.796;2022-09-09T15:37:00;5.43;;;1.90;;
3068;SDS011;1545;51.728;8.796;2022-09-09T15:39:25;5.87;;;1.83;;
3068;SDS011;1545;51.728;8.796;2022-09-09T15:41:51;9.33;;;1.77;;
3068;SDS011;1545;51.728;8.796;2022-09-09T15:44:16;5.83;;;1.70;;
3068;SDS011;1545;51.728;8.796;2022-09-09T15:46:50;8.13;;;1.73;;
3068;SDS011;1545;51.728;8.796;2022-09-09T15:49:19;4.50;;;1.73;;
3068;SDS011;1545;51.728;8.796;2022-09-09T15:51:51;5.17;;;2.13;;
3068;SDS011;1545;51.728;8.796;2022-09-09T15:54:18;6.37;;;2.07;;
3068;SDS011;1545;51.728;8.796;2022-09-09T15:56:59;5.27;;;1.87;;
3068;SDS011;1545;51.728;8.796;2022-09-09T15:59:27;4.23;;;1.80;;
3068;SDS011;1545;51.728;8.796;2022-09-09T16:01:53;8.70;;;2.40;;
3068;SDS011;1545;51.728;8.796;2022-09-09T16:04:20;7.57;;;2.00;;
3068;SDS011;1545;51.728;8.796;2022-09-09T16:06:53;10.40;;;2.47;;
3068;SDS011;1545;51.728;8.796;2022-09-09T16:09:26;5.10;;;1.87;;
3068;SDS011;1545;51.728;8.796;2022-09-09T16:11:52;12.93;;;2.00;;
3068;SDS011;1545;51.728;8.796;2022-09-09T16:14:20;5.00;;;2.00;;
3068;SDS011;1545;51.728;8.796;2022-09-09T16:16:46;3.23;;;1.70;;
3068;SDS011;1545;51.728;8.796;2022-09-09T16:19:13;7.60;;;2.20;;
3068;SDS011;1545;51.728;8.796;2022-09-09T16:21:40;8.30;;;2.67;;
3068;SDS011;1545;51.728;8.796;2022-09-09T16:24:10;5.20;;;2.37;;
3068;SDS011;1545;51.728;8.796;2022-09-09T16:26:38;11.07;;;2.50;;
3068;SDS011;1545;51.728;8.796;2022-09-09T16:29:06;6.53;;;2.30;;
3068;SDS011;1545;51.728;8.796;2022-09-09T16:31:31;5.87;;;2.20;;
3068;SDS011;1545;51.728;8.796;2022-09-09T16:33:57;8.63;;;2.53;;
3068;SDS011;1545;51.728;8.796;2022-09-09T16:36:27;8.63;;;2.33;;
3068;SDS011;1545;51.728;8.796;2022-09-09T16:38:59;5.67;;;2.23;;
3068;SDS011;1545;51.728;8.796;2022-09-09T16:41:27;6.07;;;2.10;;
3068;SDS011;1545;51.728;8.796;2022-09-09T16:43:54;7.77;;;2.43;;
3068;SDS011;1545;51.728;8.796;2022-09-09T16:46:21;6.90;;;2.23;;
3068;SDS011;1545;51.728;8.796;2022-09-09T16:48:49;7.80;;;2.00;;
3068;SDS011;1545;51.728;8.796;2022-09-09T16:53:42;16.00;;;2.13;;
3068;SDS011;1545;51.728;8.796;2022-09-09T16:56:09;2.60;;;1.80;;
3068;SDS011;1545;51.728;8.796;2022-09-09T16:58:36;6.17;;;2.17;;
3068;SDS011;1545;51.728;8.796;2022-09-09T17:01:03;5.53;;;2.17;;
3068;SDS011;1545;51.728;8.796;2022-09-09T17:03:29;4.63;;;1.97;;
3068;SDS011;1545;51.728;8.796;2022-09-09T17:05:56;4.33;;;1.90;;
3068;SDS011;1545;51.728;8.796;2022-09-09T17:08:23;6.07;;;2.47;;
3068;SDS011;1545;51.728;8.796;2022-09-09T17:10:49;6.90;;;2.50;;
3068;SDS011;1545;51.728;8.796;2022-09-09T17:13:14;3.70;;;1.77;;
3068;SDS011;1545;51.728;8.796;2022-09-09T17:15:40;4.57;;;2.30;;
3068;SDS011;1545;51.728;8.796;2022-09-09T17:18:07;7.83;;;2.20;;
3068;SDS011;1545;51.728;8.796;2022-09-09T17:20:35;4.60;;;2.43;;
3068;SDS011;1545;51.728;8.796;2022-09-09T17:23:01;7.70;;;2.17;;
3068;SDS011;1545;51.728;8.796;2022-09-09T17:25:27;5.60;;;2.10;;
3068;SDS011;1545;51.728;8.796;2022-09-09T17:27:52;4.87;;;2.10;;